createdAt,value
2019-02-28T00:01:32.313Z,3.20
2019-02-28T00:04:02.178Z,3.27
2019-02-28T00:06:32.107Z,3.10
2019-02-28T00:09:01.586Z,3.50
2019-02-28T00:11:32.614Z,2.87
2019-02-28T00:14:02.009Z,3.20
2019-02-28T00:16:31.461Z,3.30
2019-02-28T00:19:00.913Z,3.17
2019-02-28T00:21:30.315Z,3.20
2019-02-28T00:23:59.774Z,3.33
2019-02-28T00:26:29.306Z,2.87
2019-02-28T00:29:00.510Z,3.17
2019-02-28T00:31:29.867Z,3.43
2019-02-28T00:34:04.534Z,3.53
2019-02-28T00:36:30.319Z,3.20
2019-02-28T00:39:00.056Z,3.50
2019-02-28T00:41:30.990Z,2.90
2019-02-28T00:44:00.363Z,3.50
2019-02-28T00:46:29.921Z,3.17
2019-02-28T00:48:59.339Z,3.53
2019-02-28T00:51:29.761Z,3.47
2019-02-28T00:54:00.035Z,3.10
2019-02-28T00:56:29.637Z,3.20
2019-02-28T00:59:00.541Z,3.47
2019-02-28T01:01:30.697Z,3.60
2019-02-28T01:04:00.106Z,3.40
2019-02-28T01:06:29.444Z,3.37
2019-02-28T01:08:58.881Z,3.23
2019-02-28T01:11:29.258Z,3.50
2019-02-28T01:14:01.566Z,3.33
2019-02-28T01:16:29.832Z,3.23
2019-02-28T01:18:59.242Z,3.27
2019-02-28T01:21:28.647Z,3.43
2019-02-28T01:24:00.572Z,3.60
2019-02-28T01:26:30.534Z,3.33
2019-02-28T01:29:02.082Z,3.53
2019-02-28T01:31:31.095Z,3.73
2019-02-28T01:34:00.484Z,3.63
2019-02-28T01:36:29.887Z,3.60
2019-02-28T01:38:59.467Z,3.87
2019-02-28T01:41:28.866Z,3.50
2019-02-28T01:44:01.624Z,3.20
2019-02-28T01:46:29.394Z,3.97
2019-02-28T01:48:59.115Z,3.50
2019-02-28T01:51:28.480Z,3.50
2019-02-28T01:53:57.889Z,3.70
2019-02-28T01:56:27.222Z,3.37
2019-02-28T01:58:56.641Z,3.60
2019-02-28T02:01:28.492Z,3.80
2019-02-28T02:03:57.390Z,3.33
2019-02-28T02:06:26.743Z,3.63
2019-02-28T02:11:47.232Z,3.50
2019-02-28T02:14:16.644Z,3.67
2019-02-28T02:16:46.196Z,3.77
2019-02-28T02:19:18.482Z,3.43
2019-02-28T02:21:46.813Z,3.80
2019-02-28T02:24:16.161Z,3.50
2019-02-28T02:26:45.944Z,3.70
2019-02-28T02:29:15.529Z,3.50
2019-02-28T02:31:45.145Z,3.70
2019-02-28T02:34:14.556Z,3.33
2019-02-28T02:36:43.970Z,3.40
2019-02-28T02:39:17.503Z,3.97
2019-02-28T02:41:44.387Z,3.77
2019-02-28T02:44:13.730Z,3.70
2019-02-28T02:46:43.307Z,3.70
2019-02-28T02:49:18.489Z,3.70
2019-02-28T02:51:49.020Z,3.80
2019-02-28T02:54:19.884Z,3.63
2019-02-28T02:56:46.346Z,3.80
2019-02-28T02:59:15.780Z,3.60
2019-02-28T03:01:45.142Z,3.90
2019-02-28T03:04:21.443Z,3.70
2019-02-28T03:06:46.733Z,3.83
2019-02-28T03:09:16.564Z,3.53
2019-02-28T03:11:46.200Z,3.90
2019-02-28T03:14:17.319Z,3.60
2019-02-28T03:16:46.697Z,3.73
2019-02-28T03:19:16.078Z,3.57
2019-02-28T03:21:51.325Z,3.87
2019-02-28T03:24:17.929Z,3.77
2019-02-28T03:26:47.354Z,3.83
2019-02-28T03:29:16.676Z,3.97
2019-02-28T03:31:54.501Z,3.73
2019-02-28T03:34:17.263Z,3.90
2019-02-28T03:36:55.028Z,3.57
2019-02-28T03:39:24.101Z,3.60
2019-02-28T03:41:49.205Z,3.97
2019-02-28T03:44:21.733Z,3.60
2019-02-28T03:46:51.021Z,3.90
2019-02-28T03:49:20.356Z,3.67
2019-02-28T03:51:49.776Z,3.40
2019-02-28T03:54:19.129Z,3.70
2019-02-28T03:56:52.790Z,3.80
2019-02-28T03:59:20.172Z,3.77
2019-02-28T04:04:50.179Z,3.80
2019-02-28T04:07:18.708Z,3.90
2019-02-28T04:09:48.104Z,3.47
2019-02-28T04:12:17.597Z,3.80
2019-02-28T04:14:46.939Z,4.00
2019-02-28T04:17:16.499Z,4.20
2019-02-28T04:19:45.894Z,4.30
2019-02-28T04:22:19.500Z,4.30
2019-02-28T04:24:47.479Z,3.67
2019-02-28T04:27:17.157Z,4.13
2019-02-28T04:29:47.415Z,3.80
2019-02-28T04:32:26.640Z,3.73
2019-02-28T04:34:51.688Z,4.00
2019-02-28T04:37:21.042Z,4.10
2019-02-28T04:39:53.362Z,4.10
2019-02-28T04:42:21.646Z,4.27
2019-02-28T04:44:51.971Z,3.80
2019-02-28T04:47:21.943Z,3.40
2019-02-28T04:49:53.455Z,3.67
2019-02-28T04:52:22.957Z,3.60
2019-02-28T04:54:52.611Z,4.00
2019-02-28T04:57:22.216Z,3.63
2019-02-28T04:59:51.757Z,3.73
2019-02-28T05:02:21.234Z,4.00
2019-02-28T05:04:50.857Z,3.37
2019-02-28T05:07:20.377Z,3.97
2019-02-28T05:09:49.781Z,3.83
2019-02-28T05:12:19.193Z,4.10
2019-02-28T05:14:48.590Z,4.07
2019-02-28T05:17:19.301Z,3.83
2019-02-28T05:19:49.346Z,3.97
2019-02-28T05:22:18.811Z,4.33
2019-02-28T05:24:48.227Z,3.93
2019-02-28T05:27:17.587Z,3.87
2019-02-28T05:29:47.135Z,4.27
2019-02-28T05:32:17.444Z,6.53
2019-02-28T05:34:47.384Z,4.20
2019-02-28T05:37:17.953Z,4.30
2019-02-28T05:39:47.420Z,4.40
2019-02-28T05:42:16.847Z,4.47
2019-02-28T05:44:46.504Z,3.87
2019-02-28T05:47:15.874Z,4.53
2019-02-28T05:49:45.275Z,4.30
2019-02-28T05:52:14.631Z,4.43
2019-02-28T05:54:44.206Z,4.70
2019-02-28T05:57:13.645Z,4.40
2019-02-28T05:59:43.025Z,4.30
2019-02-28T06:02:12.388Z,4.13
2019-02-28T06:04:41.783Z,4.10
2019-02-28T06:07:11.194Z,4.80
2019-02-28T06:09:40.797Z,4.00
2019-02-28T06:12:10.300Z,4.30
2019-02-28T06:14:39.718Z,4.53
2019-02-28T06:17:09.104Z,4.10
2019-02-28T06:19:40.242Z,4.33
2019-02-28T06:22:09.708Z,4.70
2019-02-28T06:24:39.154Z,4.40
2019-02-28T06:27:08.543Z,4.30
2019-02-28T06:29:37.934Z,4.10
2019-02-28T06:32:07.322Z,4.87
2019-02-28T06:34:39.489Z,4.30
2019-02-28T06:37:08.100Z,4.40
2019-02-28T06:39:37.628Z,4.37
2019-02-28T06:42:07.180Z,4.60
2019-02-28T06:44:36.670Z,4.60
2019-02-28T06:47:06.050Z,4.33
2019-02-28T06:49:40.958Z,4.53
2019-02-28T06:52:06.502Z,4.47
2019-02-28T06:54:35.972Z,4.43
2019-02-28T06:57:05.655Z,4.67
2019-02-28T06:59:36.269Z,3.87
2019-02-28T07:02:06.198Z,4.63
2019-02-28T07:04:35.576Z,4.27
2019-02-28T07:07:07.353Z,4.50
2019-02-28T07:09:36.443Z,4.43
2019-02-28T07:12:06.602Z,4.47
2019-02-28T07:14:35.972Z,4.53
2019-02-28T07:17:07.801Z,4.43
2019-02-28T07:19:36.392Z,4.53
2019-02-28T07:22:06.133Z,4.80
2019-02-28T07:24:37.536Z,4.60
2019-02-28T07:27:06.511Z,4.70
2019-02-28T07:29:35.885Z,4.60
2019-02-28T07:32:05.287Z,4.80
2019-02-28T07:34:37.357Z,4.60
2019-02-28T07:37:07.087Z,4.57
2019-02-28T07:39:40.128Z,4.93
2019-02-28T07:42:09.198Z,4.83
2019-02-28T07:44:38.563Z,4.53
2019-02-28T07:47:10.231Z,4.33
2019-02-28T07:49:39.677Z,5.57
2019-02-28T07:52:09.312Z,4.50
2019-02-28T07:54:38.737Z,4.57
2019-02-28T07:57:08.168Z,5.07
2019-02-28T07:59:42.343Z,5.43
2019-02-28T08:02:08.874Z,6.20
2019-02-28T08:04:38.268Z,6.93
2019-02-28T08:07:07.822Z,6.93
2019-02-28T08:09:40.598Z,7.20
2019-02-28T08:12:08.414Z,7.37
2019-02-28T08:14:37.803Z,7.53
2019-02-28T08:17:09.051Z,8.50
2019-02-28T08:19:38.583Z,8.20
2019-02-28T08:22:08.094Z,8.07
2019-02-28T08:24:37.664Z,7.43
2019-02-28T08:27:07.064Z,8.93
2019-02-28T08:29:36.799Z,7.73
2019-02-28T08:34:55.557Z,5.93
2019-02-28T08:37:25.456Z,7.53
2019-02-28T08:39:54.868Z,8.63
2019-02-28T08:42:24.212Z,8.73
2019-02-28T08:44:58.088Z,8.73
2019-02-28T08:47:24.952Z,9.70
2019-02-28T08:49:54.411Z,6.47
2019-02-28T08:52:23.934Z,8.00
2019-02-28T08:54:53.328Z,9.73
2019-02-28T08:57:25.622Z,9.77
2019-02-28T08:59:56.273Z,9.77
2019-02-28T09:02:25.146Z,9.50
2019-02-28T09:04:54.564Z,8.70
2019-02-28T09:07:23.982Z,8.90
2019-02-28T09:09:53.401Z,8.53
2019-02-28T09:12:22.881Z,7.07
2019-02-28T09:14:55.427Z,8.70
2019-02-28T09:17:23.277Z,9.17
2019-02-28T09:19:52.919Z,7.77
2019-02-28T09:22:26.987Z,9.37
2019-02-28T09:24:53.605Z,9.40
2019-02-28T09:27:24.161Z,9.20
2019-02-28T09:29:54.692Z,7.20
2019-02-28T09:32:24.629Z,9.57
2019-02-28T09:34:54.084Z,7.53
2019-02-28T09:37:23.472Z,6.73
2019-02-28T09:39:54.294Z,7.97
2019-02-28T09:42:26.470Z,8.67
2019-02-28T09:44:55.926Z,10.20
2019-02-28T09:47:26.656Z,5.37
2019-02-28T09:49:56.311Z,9.03
2019-02-28T09:52:26.002Z,7.33
2019-02-28T09:54:56.274Z,7.93
2019-02-28T09:57:26.470Z,5.67
2019-02-28T09:59:55.916Z,7.07
2019-02-28T10:02:25.360Z,9.73
2019-02-28T10:04:54.872Z,9.77
2019-02-28T10:07:26.510Z,5.63
2019-02-28T10:09:55.496Z,10.97
2019-02-28T10:12:24.905Z,9.23
2019-02-28T10:14:54.257Z,5.23
2019-02-28T10:17:25.907Z,11.53
2019-02-28T10:19:55.703Z,6.73
2019-02-28T10:22:25.203Z,7.60
2019-02-28T10:24:54.863Z,11.80
2019-02-28T10:27:26.735Z,11.83
2019-02-28T10:29:55.511Z,9.70
2019-02-28T10:32:25.913Z,9.17
2019-02-28T10:34:58.322Z,12.13
2019-02-28T10:37:26.487Z,6.23
2019-02-28T10:39:55.904Z,8.20
2019-02-28T10:42:25.352Z,10.27
2019-02-28T10:44:54.708Z,6.77
2019-02-28T10:47:28.160Z,10.50
2019-02-28T10:49:55.383Z,10.53
2019-02-28T10:52:27.320Z,11.83
2019-02-28T10:54:57.514Z,9.90
2019-02-28T10:57:27.072Z,6.60
2019-02-28T10:59:58.236Z,9.63
2019-02-28T11:02:27.563Z,10.40
2019-02-28T11:04:57.180Z,10.07
2019-02-28T11:07:26.691Z,11.47
2019-02-28T11:09:58.794Z,11.47
2019-02-28T11:12:27.365Z,8.80
2019-02-28T11:14:56.734Z,12.80
2019-02-28T11:17:26.155Z,11.40
2019-02-28T11:19:55.717Z,9.90
2019-02-28T11:22:25.079Z,12.10
2019-02-28T11:24:57.301Z,12.43
2019-02-28T11:27:25.964Z,9.97
2019-02-28T11:29:55.537Z,12.27
2019-02-28T11:32:26.439Z,10.87
2019-02-28T11:34:56.393Z,11.73
2019-02-28T11:37:25.873Z,9.67
2019-02-28T11:39:56.381Z,11.47
2019-02-28T11:42:28.014Z,9.40
2019-02-28T11:44:58.456Z,8.10
2019-02-28T11:47:27.926Z,9.90
2019-02-28T11:50:00.296Z,12.73
2019-02-28T11:52:28.434Z,11.57
2019-02-28T11:54:58.071Z,7.80
2019-02-28T11:57:27.856Z,12.60
2019-02-28T12:00:00.092Z,8.67
2019-02-28T12:02:28.438Z,9.63
2019-02-28T12:04:57.842Z,9.10
2019-02-28T12:07:27.324Z,10.63
2019-02-28T12:09:57.105Z,9.20
2019-02-28T12:12:27.575Z,10.93
2019-02-28T12:14:57.046Z,10.50
2019-02-28T12:17:28.597Z,12.37
2019-02-28T12:19:57.699Z,10.40
2019-02-28T12:22:27.454Z,6.50
2019-02-28T12:24:57.048Z,10.70
2019-02-28T12:27:27.431Z,10.90
2019-02-28T12:29:57.538Z,11.13
2019-02-28T12:32:26.987Z,11.83
2019-02-28T12:34:56.346Z,10.83
2019-02-28T12:37:25.861Z,8.20
2019-02-28T12:39:55.350Z,11.50
2019-02-28T12:42:25.052Z,11.83
2019-02-28T12:44:54.397Z,9.80
2019-02-28T12:47:24.378Z,10.67
2019-02-28T12:49:57.270Z,9.00
2019-02-28T12:52:26.593Z,10.73
2019-02-28T12:54:56.886Z,11.63
2019-02-28T12:57:26.504Z,10.93
2019-02-28T12:59:55.981Z,11.80
2019-02-28T13:02:26.138Z,11.07
2019-02-28T13:04:55.536Z,11.30
2019-02-28T13:07:25.115Z,11.10
2019-02-28T13:09:54.544Z,9.40
2019-02-28T13:12:24.155Z,8.10
2019-02-28T13:14:54.753Z,9.70
2019-02-28T13:17:24.407Z,10.93
2019-02-28T13:19:56.547Z,9.70
2019-02-28T13:22:25.379Z,10.20
2019-02-28T13:24:54.880Z,10.47
2019-02-28T13:27:24.640Z,9.57
2019-02-28T13:29:54.511Z,11.27
2019-02-28T13:32:24.280Z,11.07
2019-02-28T13:34:53.719Z,10.33
2019-02-28T13:37:23.498Z,11.30
2019-02-28T13:39:52.922Z,10.13
2019-02-28T13:42:22.410Z,11.10
2019-02-28T13:44:51.926Z,8.93
2019-02-28T13:47:21.443Z,10.37
2019-02-28T13:49:50.892Z,10.50
2019-02-28T13:52:20.987Z,11.00
2019-02-28T13:54:52.067Z,9.77
2019-02-28T13:57:21.470Z,9.23
2019-02-28T13:59:53.746Z,10.43
2019-02-28T14:02:26.232Z,10.13
2019-02-28T14:04:58.715Z,10.73
2019-02-28T14:07:30.123Z,10.63
2019-02-28T14:09:58.912Z,10.57
2019-02-28T14:12:28.898Z,9.37
2019-02-28T14:14:58.696Z,8.97
2019-02-28T14:17:28.273Z,9.83
2019-02-28T14:19:57.851Z,9.50
2019-02-28T14:22:27.270Z,10.83
2019-02-28T14:24:58.072Z,10.70
2019-02-28T14:27:27.586Z,11.17
2019-02-28T14:29:57.007Z,9.37
2019-02-28T14:32:26.515Z,11.40
2019-02-28T14:34:57.242Z,9.73
2019-02-28T14:37:28.365Z,9.70
2019-02-28T14:39:57.757Z,7.40
2019-02-28T14:42:27.236Z,11.70
2019-02-28T14:44:58.128Z,8.77
2019-02-28T14:47:28.518Z,8.57
2019-02-28T14:49:59.675Z,9.70
2019-02-28T14:52:30.229Z,8.37
2019-02-28T14:55:02.164Z,9.13
2019-02-28T14:57:32.186Z,9.40
2019-02-28T15:00:06.477Z,9.23
2019-02-28T15:02:37.234Z,8.60
2019-02-28T15:05:10.275Z,8.80
2019-02-28T15:07:42.037Z,8.07
2019-02-28T15:10:22.679Z,8.87
2019-02-28T15:12:55.333Z,9.40
2019-02-28T15:15:24.596Z,7.47
2019-02-28T15:17:55.984Z,8.50
2019-02-28T15:20:31.713Z,9.37
2019-02-28T15:23:00.216Z,8.87
2019-02-28T15:25:30.766Z,8.73
2019-02-28T15:28:01.357Z,10.13
2019-02-28T15:30:38.673Z,8.73
2019-02-28T15:33:09.950Z,10.47
2019-02-28T15:35:39.508Z,10.47
2019-02-28T15:38:10.504Z,11.70
2019-02-28T15:40:42.616Z,10.67
2019-02-28T15:43:17.167Z,10.47
2019-02-28T15:45:43.406Z,9.90
2019-02-28T15:48:12.770Z,11.07
2019-02-28T15:50:42.579Z,9.00
2019-02-28T15:53:15.172Z,11.50
2019-02-28T15:55:43.146Z,9.23
2019-02-28T15:58:12.766Z,10.90
2019-02-28T16:00:42.273Z,9.63
2019-02-28T16:03:13.514Z,11.70
2019-02-28T16:05:44.236Z,10.20
2019-02-28T16:08:14.906Z,11.27
2019-02-28T16:10:52.879Z,11.33
2019-02-28T16:13:16.811Z,11.40
2019-02-28T16:15:49.022Z,10.27
2019-02-28T16:18:17.576Z,11.33
2019-02-28T16:20:47.079Z,11.43
2019-02-28T16:23:16.726Z,10.80
2019-02-28T16:25:48.170Z,10.93
2019-02-28T16:28:18.497Z,11.17
2019-02-28T16:30:48.141Z,10.83
2019-02-28T16:33:20.989Z,10.87
2019-02-28T16:35:50.337Z,10.73
2019-02-28T16:38:20.835Z,6.20
2019-02-28T16:40:50.475Z,11.10
2019-02-28T16:43:20.951Z,9.70
2019-02-28T16:45:57.134Z,10.60
2019-02-28T16:48:33.421Z,10.47
2019-02-28T16:51:02.191Z,10.47
2019-02-28T16:53:31.857Z,10.03
2019-02-28T16:56:02.584Z,11.60
2019-02-28T16:58:33.310Z,10.97
2019-02-28T17:01:02.918Z,11.30
2019-02-28T17:03:32.535Z,10.03
2019-02-28T17:06:02.407Z,10.70
2019-02-28T17:08:33.815Z,10.90
2019-02-28T17:11:03.651Z,11.17
2019-02-28T17:13:38.752Z,10.30
2019-02-28T17:16:13.206Z,10.87
2019-02-28T17:18:44.004Z,10.30
2019-02-28T17:21:17.927Z,11.37
2019-02-28T17:23:45.322Z,9.77
2019-02-28T17:27:06.140Z,11.53
2019-02-28T17:30:17.498Z,9.43
2019-02-28T17:36:15.814Z,9.97
2019-02-28T17:38:45.606Z,10.70
2019-02-28T17:41:15.266Z,10.80
2019-02-28T17:44:04.106Z,11.00
2019-02-28T17:46:34.043Z,11.03
2019-02-28T17:49:29.531Z,9.80
2019-02-28T17:52:02.291Z,9.43
2019-02-28T17:54:37.943Z,8.60
2019-02-28T17:57:11.247Z,8.53
2019-02-28T17:59:47.270Z,9.20
2019-02-28T18:02:49.475Z,12.90
2019-02-28T18:05:50.183Z,10.77
2019-02-28T18:08:36.720Z,10.53
2019-02-28T18:11:13.033Z,10.80
2019-02-28T18:14:03.747Z,9.87
2019-02-28T18:16:58.022Z,11.03
2019-02-28T18:19:40.719Z,8.87
2019-02-28T18:22:29.863Z,11.43
2019-02-28T18:25:25.263Z,11.23
2019-02-28T18:28:15.010Z,11.07
2019-02-28T18:31:08.930Z,11.23
2019-02-28T18:33:47.417Z,11.40
2019-02-28T18:36:19.556Z,11.27
2019-02-28T18:38:49.734Z,11.43
2019-02-28T18:41:19.659Z,11.50
2019-02-28T18:43:49.197Z,11.23
2019-02-28T18:46:18.623Z,11.47
2019-02-28T18:48:51.200Z,11.30
2019-02-28T18:51:19.481Z,12.73
2019-02-28T18:53:49.004Z,12.63
2019-02-28T18:56:18.501Z,11.50
2019-02-28T18:58:48.055Z,10.67
2019-02-28T19:01:17.657Z,10.57
2019-02-28T19:03:47.360Z,11.53
2019-02-28T19:06:16.916Z,11.80
2019-02-28T19:08:46.439Z,11.47
2019-02-28T19:11:16.199Z,11.77
2019-02-28T19:13:46.216Z,11.53
2019-02-28T19:16:15.608Z,12.97
2019-02-28T19:18:48.391Z,11.33
2019-02-28T19:21:18.996Z,13.07
2019-02-28T19:23:48.502Z,14.90
2019-02-28T19:26:18.162Z,13.90
2019-02-28T19:28:47.991Z,13.27
2019-02-28T19:31:19.419Z,37.80
2019-02-28T19:33:48.889Z,42.40
2019-02-28T19:36:18.455Z,15.30
2019-02-28T19:38:47.920Z,15.27
2019-02-28T19:41:17.436Z,12.93
2019-02-28T19:43:46.937Z,13.27
2019-02-28T19:46:16.567Z,14.90
2019-02-28T19:48:47.151Z,9.47
2019-02-28T19:51:16.859Z,14.00
2019-02-28T19:53:46.267Z,14.83
2019-02-28T19:56:15.680Z,11.53
2019-02-28T19:58:45.086Z,5.47
2019-02-28T20:01:19.020Z,12.23
2019-02-28T20:03:47.491Z,14.67
2019-02-28T20:06:16.852Z,14.10
2019-02-28T20:08:46.672Z,11.53
2019-02-28T20:11:16.236Z,9.10
2019-02-28T20:13:46.262Z,14.63
2019-02-28T20:16:16.390Z,14.17
2019-02-28T20:18:46.020Z,12.43
2019-02-28T20:21:15.526Z,11.90
2019-02-28T20:23:44.974Z,11.40
2019-02-28T20:26:14.685Z,11.13
2019-02-28T20:28:44.260Z,9.47
2019-02-28T20:31:14.014Z,7.83
2019-02-28T20:33:43.660Z,9.87
2019-02-28T20:36:13.207Z,10.27
2019-02-28T20:38:42.787Z,9.00
2019-02-28T20:41:13.303Z,12.20
2019-02-28T20:43:42.896Z,7.17
2019-02-28T20:46:12.262Z,11.97
2019-02-28T20:48:42.633Z,10.87
2019-02-28T20:51:14.419Z,12.50
2019-02-28T20:53:44.025Z,10.87
2019-02-28T20:56:15.018Z,11.70
2019-02-28T20:58:44.545Z,9.97
2019-02-28T21:01:14.306Z,7.03
2019-02-28T21:03:43.894Z,9.80
2019-02-28T21:06:15.612Z,11.30
2019-02-28T21:08:45.121Z,10.70
2019-02-28T21:11:14.620Z,11.47
2019-02-28T21:13:44.112Z,9.27
2019-02-28T21:16:13.731Z,9.80
2019-02-28T21:18:49.397Z,10.90
2019-02-28T21:21:18.938Z,10.63
2019-02-28T21:23:48.650Z,10.23
2019-02-28T21:26:20.034Z,8.00
2019-02-28T21:28:49.938Z,11.03
2019-02-28T21:31:19.546Z,9.97
2019-02-28T21:33:49.333Z,9.67
2019-02-28T21:36:19.273Z,9.70
2019-02-28T21:38:48.747Z,8.03
2019-02-28T21:41:20.518Z,11.13
2019-02-28T21:43:54.075Z,11.40
2019-02-28T21:46:26.406Z,11.20
2019-02-28T21:48:56.229Z,10.63
2019-02-28T21:51:27.907Z,9.27
2019-02-28T21:54:13.865Z,7.57
2019-02-28T21:56:48.412Z,10.20
2019-02-28T21:59:21.420Z,9.90
2019-02-28T22:01:51.683Z,10.63
2019-02-28T22:04:27.887Z,8.70
2019-02-28T22:07:01.860Z,8.90
2019-02-28T22:09:52.855Z,9.77
2019-02-28T22:12:27.299Z,8.57
2019-02-28T22:15:02.774Z,8.83
2019-02-28T22:17:34.445Z,7.53
2019-02-28T22:20:04.557Z,8.10
2019-02-28T22:22:34.736Z,6.80
2019-02-28T22:25:06.003Z,7.23
2019-02-28T22:27:35.436Z,7.47
2019-02-28T22:30:27.360Z,6.90
2019-02-28T22:32:58.536Z,7.17
2019-02-28T22:35:29.703Z,5.57
2019-02-28T22:37:59.192Z,6.60
2019-02-28T22:40:29.628Z,5.67
2019-02-28T22:42:59.082Z,5.60
2019-02-28T22:45:28.857Z,5.37
2019-02-28T22:47:58.644Z,5.47
2019-02-28T22:50:28.515Z,5.03
2019-02-28T22:52:58.072Z,4.57
2019-02-28T22:55:27.883Z,5.30
2019-02-28T22:57:57.279Z,4.77
2019-02-28T23:00:46.688Z,4.93
2019-02-28T23:03:17.738Z,2.20
2019-02-28T23:05:47.226Z,4.30
2019-02-28T23:08:16.936Z,5.30
2019-02-28T23:10:46.366Z,3.50
2019-02-28T23:13:15.872Z,4.47
2019-02-28T23:15:45.372Z,5.10
2019-02-28T23:18:14.783Z,4.50
2019-02-28T23:20:44.126Z,4.50
2019-02-28T23:23:13.834Z,4.57
2019-02-28T23:25:43.348Z,4.70
2019-02-28T23:28:25.024Z,4.73
2019-02-28T23:31:06.489Z,4.57
2019-02-28T23:33:35.940Z,4.13
2019-02-28T23:36:05.462Z,5.30
2019-02-28T23:38:35.148Z,5.20
2019-02-28T23:41:05.260Z,4.97
2019-02-28T23:43:34.827Z,4.87
2019-02-28T23:46:04.403Z,4.90
2019-02-28T23:48:33.808Z,5.17
2019-02-28T23:51:03.515Z,5.57
2019-02-28T23:53:33.074Z,4.67
2019-02-28T23:56:02.801Z,5.33
2019-02-28T23:58:32.223Z,5.40
